Time;durP1;ratioP1;P1;durP2;ratioP2;P2;SDS_P1;SDS_P2;PMS_P1;PMS_P2;Temp;Humidity;BMP_temperature;BMP_pressure;BME280_temperature;BME280_humidity;BME280_pressure;Samples;Min_cycle;Max_cycle;Signal;HPM_P1;HPM_P2
2023/07/10 00:01:05;;;;;;;17.20;7.68;;;19.40;99.90;;;;;;5099981;28;20062;-86
2023/07/10 00:03:32;;;;;;;16.35;8.30;;;19.40;99.90;;;;;;5029751;28;20047;-86
2023/07/10 00:05:59;;;;;;;16.27;8.02;;;19.40;99.90;;;;;;5134735;27;20024;-86
2023/07/10 00:08:25;;;;;;;19.30;9.15;;;19.50;99.90;;;;;;5052034;28;20037;-86
2023/07/10 00:10:52;;;;;;;20.40;8.30;;;19.50;99.90;;;;;;5026436;28;20042;-86
2023/07/10 00:13:21;;;;;;;18.25;8.80;;;19.50;99.90;;;;;;5025237;28;20036;-86
2023/07/10 00:15:52;;;;;;;17.52;8.63;;;19.40;99.90;;;;;;5088669;28;20017;-85
2023/07/10 00:18:20;;;;;;;17.40;8.85;;;19.40;99.90;;;;;;5028920;28;20263;-85
2023/07/10 00:20:47;;;;;;;20.52;8.90;;;19.40;99.90;;;;;;5062905;28;20093;-85
2023/07/10 00:23:13;;;;;;;17.20;8.45;;;19.40;99.90;;;;;;5029377;27;20053;-86
2023/07/10 00:25:39;;;;;;;25.50;9.95;;;19.30;99.90;;;;;;5030770;28;20031;-86
2023/07/10 00:28:14;;;;;;;22.75;9.50;;;19.30;99.90;;;;;;5021522;28;20017;-86
2023/07/10 00:30:40;;;;;;;17.60;9.45;;;19.30;99.90;;;;;;5021929;28;20037;-86
2023/07/10 00:33:10;;;;;;;19.52;9.43;;;19.30;99.90;;;;;;5023955;28;20033;-86
2023/07/10 00:35:36;;;;;;;20.05;9.32;;;19.30;99.90;;;;;;5029748;28;20171;-86
2023/07/10 00:38:15;;;;;;;19.98;9.02;;;19.30;99.90;;;;;;5047873;28;20028;-86
2023/07/10 00:40:44;;;;;;;18.05;9.32;;;19.30;99.90;;;;;;5037343;28;20008;-86
2023/07/10 00:43:31;;;;;;;21.02;9.45;;;19.40;99.90;;;;;;5023439;28;20018;-86
2023/07/10 00:46:02;;;;;;;17.23;9.60;;;19.30;99.90;;;;;;5048767;28;20059;-86
2023/07/10 00:48:36;;;;;;;16.20;9.13;;;19.30;99.90;;;;;;5059340;28;20021;-86
2023/07/10 00:51:11;;;;;;;18.92;8.70;;;19.30;99.90;;;;;;5045011;28;20260;-86
2023/07/10 00:53:41;;;;;;;20.60;8.43;;;19.30;99.90;;;;;;5029493;28;20032;-86
2023/07/10 00:56:13;;;;;;;15.73;8.38;;;19.20;99.90;;;;;;5050069;28;20090;-86
2023/07/10 00:58:42;;;;;;;20.27;8.55;;;19.20;99.90;;;;;;5048819;28;20177;-86
2023/07/10 01:01:10;;;;;;;17.60;8.38;;;19.30;99.90;;;;;;5048063;28;20021;-87
2023/07/10 01:03:37;;;;;;;18.73;8.65;;;19.20;99.90;;;;;;5059725;28;20030;-86
2023/07/10 01:06:08;;;;;;;20.95;8.68;;;19.30;99.90;;;;;;5023489;28;20021;-86
2023/07/10 01:08:36;;;;;;;18.70;9.35;;;19.20;99.90;;;;;;5043592;28;20025;-86
2023/07/10 01:11:02;;;;;;;21.20;10.82;;;19.20;99.90;;;;;;5031601;28;20058;-86
2023/07/10 01:13:28;;;;;;;21.17;12.23;;;19.20;99.90;;;;;;5032714;28;20332;-86
2023/07/10 01:15:53;;;;;;;24.48;14.23;;;19.20;99.90;;;;;;5035087;28;20048;-86
2023/07/10 01:18:24;;;;;;;26.75;14.95;;;19.10;99.90;;;;;;5011390;28;20092;-86
2023/07/10 01:20:59;;;;;;;30.38;16.15;;;19.10;99.90;;;;;;5010568;28;20070;-86
2023/07/10 01:23:24;;;;;;;28.33;16.85;;;19.10;99.90;;;;;;5029343;28;20078;-86
2023/07/10 01:25:58;;;;;;;26.48;17.77;;;19.00;99.90;;;;;;5031260;28;20208;-86
2023/07/10 01:28:23;;;;;;;31.67;16.98;;;19.00;99.90;;;;;;5042390;28;20021;-86
2023/07/10 01:30:55;;;;;;;30.60;17.33;;;19.00;99.90;;;;;;5136174;27;20270;-86
2023/07/10 01:33:26;;;;;;;38.20;18.70;;;19.00;99.90;;;;;;5026543;28;20069;-86
2023/07/10 01:35:56;;;;;;;29.88;17.15;;;19.00;99.90;;;;;;5042918;28;20152;-86
2023/07/10 01:38:34;;;;;;;28.80;16.50;;;18.90;99.90;;;;;;5025184;28;20021;-86
2023/07/10 01:41:09;;;;;;;28.25;17.25;;;18.90;99.90;;;;;;5022543;28;20025;-86
2023/07/10 01:43:35;;;;;;;28.27;16.52;;;18.80;99.90;;;;;;5049478;28;20267;-86
2023/07/10 01:46:00;;;;;;;27.15;16.52;;;18.80;99.90;;;;;;5066268;27;20067;-86
2023/07/10 01:48:28;;;;;;;23.10;14.75;;;18.80;99.90;;;;;;5024305;28;20037;-85
2023/07/10 01:50:54;;;;;;;23.00;15.52;;;18.80;99.90;;;;;;5042244;28;20020;-86
2023/07/10 01:53:19;;;;;;;25.38;14.48;;;18.80;99.90;;;;;;5029461;28;20163;-86
2023/07/10 01:55:46;;;;;;;26.33;15.05;;;18.70;99.90;;;;;;5063720;28;20057;-86
2023/07/10 01:58:13;;;;;;;25.98;14.80;;;18.70;99.90;;;;;;5029270;28;20148;-86
2023/07/10 02:00:40;;;;;;;22.30;14.02;;;18.70;99.90;;;;;;5042353;27;20137;-86
2023/07/10 02:03:07;;;;;;;26.17;15.30;;;18.70;99.90;;;;;;5027205;28;20064;-86
2023/07/10 02:05:33;;;;;;;22.30;12.77;;;18.70;99.90;;;;;;5030574;28;20080;-86
2023/07/10 02:07:59;;;;;;;21.35;12.98;;;18.70;99.90;;;;;;5025863;28;20197;-86
2023/07/10 02:10:25;;;;;;;23.98;14.82;;;18.70;99.90;;;;;;5027211;28;20036;-86
2023/07/10 02:12:50;;;;;;;24.40;14.68;;;18.70;99.90;;;;;;5031059;28;20024;-86
2023/07/10 02:15:16;;;;;;;23.98;13.30;;;18.70;99.90;;;;;;5027882;27;20020;-86
2023/07/10 02:17:42;;;;;;;24.77;13.43;;;18.60;99.90;;;;;;5030548;28;20024;-86
2023/07/10 02:20:08;;;;;;;22.02;13.70;;;18.60;99.90;;;;;;5014535;28;20281;-85
2023/07/10 02:22:33;;;;;;;22.15;13.63;;;18.60;99.90;;;;;;5036058;28;20035;-86
2023/07/10 02:24:59;;;;;;;21.60;13.25;;;18.60;99.90;;;;;;5027776;27;20032;-85
2023/07/10 02:27:25;;;;;;;19.25;12.75;;;18.60;99.90;;;;;;5017211;27;20138;-86
2023/07/10 02:29:50;;;;;;;20.63;13.13;;;18.60;99.90;;;;;;5056181;28;20327;-86
2023/07/10 02:32:16;;;;;;;22.13;12.93;;;18.60;99.90;;;;;;5027928;28;20035;-86
2023/07/10 02:34:42;;;;;;;19.42;11.38;;;18.60;99.90;;;;;;5038906;27;20118;-86
2023/07/10 02:37:07;;;;;;;17.50;11.70;;;18.60;99.90;;;;;;5046199;28;20025;-86
2023/07/10 02:39:33;;;;;;;18.63;10.98;;;18.60;99.90;;;;;;5048910;28;20024;-86
2023/07/10 02:41:59;;;;;;;17.58;9.82;;;18.60;99.90;;;;;;5048733;27;20133;-86
2023/07/10 02:44:25;;;;;;;18.55;9.77;;;18.60;99.90;;;;;;5026070;28;20130;-86
2023/07/10 02:46:50;;;;;;;20.02;9.93;;;18.60;99.90;;;;;;5005982;27;20025;-86
2023/07/10 02:49:16;;;;;;;18.27;10.02;;;18.60;99.90;;;;;;5006177;28;20056;-86
2023/07/10 02:51:42;;;;;;;16.95;9.07;;;18.60;99.90;;;;;;5026300;28;20024;-86
2023/07/10 02:54:12;;;;;;;15.80;8.20;;;18.60;99.90;;;;;;5026130;28;20021;-86
2023/07/10 02:56:38;;;;;;;17.63;9.13;;;18.60;99.90;;;;;;5026410;28;20170;-86
2023/07/10 02:59:04;;;;;;;17.30;8.38;;;18.60;99.90;;;;;;5051489;28;20025;-87
2023/07/10 03:01:30;;;;;;;16.13;7.95;;;18.60;99.90;;;;;;5025858;28;20036;-86
2023/07/10 03:03:55;;;;;;;18.10;8.30;;;18.60;99.90;;;;;;5020709;28;20021;-86
2023/07/10 03:06:23;;;;;;;16.48;7.88;;;18.50;99.90;;;;;;5022209;28;20017;-86
2023/07/10 03:08:50;;;;;;;14.35;8.80;;;18.60;99.90;;;;;;5107354;28;20022;-86
2023/07/10 03:11:16;;;;;;;18.25;8.93;;;18.60;99.90;;;;;;5045535;28;20028;-86
2023/07/10 03:13:42;;;;;;;16.50;8.23;;;18.60;99.90;;;;;;5026139;28;20018;-86
2023/07/10 03:16:13;;;;;;;17.15;8.77;;;18.60;99.90;;;;;;5039855;28;20017;-86
2023/07/10 03:18:39;;;;;;;16.17;8.70;;;18.60;99.90;;;;;;5025975;28;20036;-86
2023/07/10 03:21:07;;;;;;;14.38;8.40;;;18.70;99.90;;;;;;5025015;28;20021;-87
2023/07/10 03:23:32;;;;;;;14.13;8.02;;;18.60;99.90;;;;;;5036674;28;20145;-87
2023/07/10 03:25:58;;;;;;;16.25;7.95;;;18.70;99.90;;;;;;5009631;28;20177;-87
2023/07/10 03:28:24;;;;;;;16.08;7.50;;;18.70;99.90;;;;;;5025917;28;20286;-87
2023/07/10 03:30:50;;;;;;;14.63;7.60;;;18.70;99.90;;;;;;5026127;28;20233;-87
2023/07/10 03:33:17;;;;;;;14.18;7.22;;;18.70;99.90;;;;;;5044077;28;20028;-86
2023/07/10 03:35:48;;;;;;;15.05;7.40;;;18.70;99.90;;;;;;5036508;28;20025;-86
2023/07/10 03:38:14;;;;;;;14.35;6.75;;;18.60;99.90;;;;;;5003405;28;20029;-86
2023/07/10 03:40:52;;;;;;;17.23;6.68;;;18.70;99.90;;;;;;5039134;28;20092;-86
2023/07/10 03:43:18;;;;;;;13.57;6.20;;;18.60;99.90;;;;;;5058685;28;20175;-86
2023/07/10 03:45:44;;;;;;;12.02;6.10;;;18.60;99.90;;;;;;5029775;27;20184;-86
2023/07/10 03:48:10;;;;;;;12.13;6.22;;;18.60;99.90;;;;;;5105366;28;20041;-86
2023/07/10 03:50:36;;;;;;;13.55;5.95;;;18.60;99.90;;;;;;5008104;28;20037;-87
2023/07/10 03:53:02;;;;;;;11.57;5.47;;;18.70;99.90;;;;;;5013383;28;20053;-86
2023/07/10 03:55:27;;;;;;;11.82;5.78;;;18.60;99.90;;;;;;5008397;27;20024;-86
2023/07/10 03:57:53;;;;;;;13.20;4.85;;;18.60;99.90;;;;;;5037358;28;20020;-87
2023/07/10 04:00:19;;;;;;;11.00;5.30;;;18.60;99.90;;;;;;5063161;27;20039;-87
2023/07/10 04:02:44;;;;;;;11.15;5.22;;;18.60;99.90;;;;;;5023413;28;20103;-86
2023/07/10 04:05:10;;;;;;;12.30;5.10;;;18.60;99.90;;;;;;5029059;28;20029;-86
2023/07/10 04:07:36;;;;;;;11.48;5.43;;;18.60;99.90;;;;;;5013948;28;20160;-86
2023/07/10 04:10:02;;;;;;;11.70;4.93;;;18.90;99.90;;;;;;5017460;28;20288;-86
2023/07/10 04:12:28;;;;;;;12.73;5.65;;;18.60;99.90;;;;;;5056505;28;20271;-86
2023/07/10 04:14:54;;;;;;;10.85;4.70;;;18.60;99.90;;;;;;5002618;28;20241;-86
2023/07/10 04:17:19;;;;;;;13.38;5.22;;;18.60;99.90;;;;;;5025710;28;20262;-86
2023/07/10 04:19:45;;;;;;;11.32;4.82;;;18.70;99.90;;;;;;5014553;28;20017;-86
2023/07/10 04:22:11;;;;;;;11.07;5.20;;;18.70;99.90;;;;;;5045577;28;20033;-87
2023/07/10 04:24:37;;;;;;;10.70;5.05;;;18.70;99.90;;;;;;5040222;28;20032;-86
2023/07/10 04:27:02;;;;;;;12.23;6.18;;;18.70;99.90;;;;;;5017466;27;20029;-86
2023/07/10 04:29:28;;;;;;;12.70;5.90;;;18.70;99.90;;;;;;5059752;28;20037;-87
2023/07/10 04:31:54;;;;;;;11.75;5.60;;;18.70;99.90;;;;;;5028003;28;20266;-86
2023/07/10 04:34:20;;;;;;;12.35;6.15;;;18.70;99.90;;;;;;5028716;28;20255;-86
2023/07/10 04:36:45;;;;;;;12.27;5.75;;;18.70;99.90;;;;;;5044774;28;20025;-86
2023/07/10 04:39:11;;;;;;;13.27;5.60;;;18.70;99.90;;;;;;5025687;28;20063;-86
2023/07/10 04:41:37;;;;;;;13.15;6.28;;;18.70;99.90;;;;;;5006566;28;20086;-86
2023/07/10 04:44:04;;;;;;;11.18;5.88;;;18.80;99.90;;;;;;5037817;28;20029;-86
2023/07/10 04:46:31;;;;;;;11.43;5.50;;;18.80;99.90;;;;;;5035887;28;20078;-86
2023/07/10 04:48:57;;;;;;;13.65;5.60;;;18.80;99.90;;;;;;5043954;28;20037;-86
2023/07/10 04:51:22;;;;;;;11.00;5.43;;;18.80;99.90;;;;;;5026869;28;20311;-86
2023/07/10 04:53:49;;;;;;;10.75;5.10;;;18.80;99.90;;;;;;5094471;28;20021;-86
2023/07/10 04:56:16;;;;;;;9.77;5.20;;;18.80;99.90;;;;;;5026877;28;20096;-86
2023/07/10 04:58:49;;;;;;;10.82;5.20;;;18.90;99.90;;;;;;5026672;27;20088;-86
2023/07/10 05:01:16;;;;;;;10.85;5.05;;;18.90;99.90;;;;;;5039974;27;20037;-87
2023/07/10 05:03:42;;;;;;;9.25;4.03;;;18.90;99.90;;;;;;5019033;27;20023;-85
2023/07/10 05:06:08;;;;;;;8.75;3.88;;;18.90;99.90;;;;;;5049576;27;20101;-85
2023/07/10 05:08:34;;;;;;;10.32;3.97;;;18.90;99.90;;;;;;5031674;28;20040;-84
2023/07/10 05:11:00;;;;;;;10.25;3.95;;;18.90;99.90;;;;;;5040438;27;20152;-85
2023/07/10 05:13:28;;;;;;;11.52;4.13;;;18.80;99.90;;;;;;5036907;28;20025;-85
2023/07/10 05:15:57;;;;;;;12.18;4.97;;;18.80;99.90;;;;;;5043024;27;20035;-84
2023/07/10 05:18:23;;;;;;;11.15;4.97;;;18.80;99.90;;;;;;5037681;28;20021;-86
2023/07/10 05:20:48;;;;;;;13.27;4.95;;;18.80;99.90;;;;;;5023059;28;20084;-86
2023/07/10 05:23:15;;;;;;;12.63;5.07;;;18.80;99.90;;;;;;5008526;27;20051;-85
2023/07/10 05:25:57;;;;;;;12.05;4.68;;;18.80;99.90;;;;;;5038877;28;20174;-86
2023/07/10 05:28:23;;;;;;;12.85;4.65;;;18.90;99.90;;;;;;5017878;27;20029;-85
2023/07/10 05:30:49;;;;;;;11.48;4.50;;;18.90;99.90;;;;;;5030400;27;20021;-86
2023/07/10 05:33:15;;;;;;;9.32;4.53;;;18.90;99.90;;;;;;5020421;27;20037;-85
2023/07/10 05:35:55;;;;;;;10.02;4.68;;;19.00;99.90;;;;;;5031267;28;20028;-85
2023/07/10 05:38:29;;;;;;;11.63;4.90;;;19.00;99.90;;;;;;5000998;28;20136;-85
2023/07/10 05:40:55;;;;;;;10.02;4.90;;;19.00;99.90;;;;;;5043473;28;20077;-86
2023/07/10 05:43:21;;;;;;;11.70;4.68;;;19.00;99.90;;;;;;5021336;28;20025;-85
2023/07/10 05:45:49;;;;;;;9.48;4.28;;;19.10;99.90;;;;;;5037608;28;20384;-85
2023/07/10 05:48:14;;;;;;;10.73;4.55;;;19.10;99.90;;;;;;5041724;28;20068;-86
2023/07/10 05:50:43;;;;;;;11.55;4.40;;;19.10;99.90;;;;;;5040921;28;20097;-85
2023/07/10 05:53:08;;;;;;;12.65;4.88;;;19.20;99.90;;;;;;5022788;27;20050;-85
2023/07/10 05:55:34;;;;;;;11.40;5.38;;;19.20;99.90;;;;;;5023439;28;20029;-86
2023/07/10 05:58:00;;;;;;;10.88;4.88;;;19.30;99.90;;;;;;5041011;28;20076;-86
2023/07/10 06:00:26;;;;;;;10.35;4.75;;;19.40;99.90;;;;;;5005391;28;20031;-86
2023/07/10 06:02:52;;;;;;;11.35;4.78;;;19.40;99.90;;;;;;5006219;28;20266;-86
2023/07/10 06:05:18;;;;;;;9.90;4.03;;;19.40;99.90;;;;;;5019087;28;20036;-85
2023/07/10 06:07:44;;;;;;;9.57;4.22;;;19.50;99.90;;;;;;5016628;27;20025;-85
2023/07/10 06:10:10;;;;;;;11.30;3.95;;;19.50;99.90;;;;;;5037910;28;20028;-85
2023/07/10 06:12:36;;;;;;;12.45;4.28;;;19.50;99.90;;;;;;5005442;28;20052;-85
2023/07/10 06:15:01;;;;;;;9.57;3.72;;;19.50;99.90;;;;;;5091265;28;20028;-84
2023/07/10 06:17:27;;;;;;;9.30;3.95;;;19.50;99.90;;;;;;5022630;28;20013;-84
2023/07/10 06:19:53;;;;;;;10.05;3.72;;;19.50;99.90;;;;;;5038162;28;20174;-84
2023/07/10 06:22:19;;;;;;;11.15;3.97;;;19.40;99.90;;;;;;5020836;28;20073;-85
2023/07/10 06:24:44;;;;;;;11.93;3.90;;;19.40;99.90;;;;;;5036634;28;20174;-84
2023/07/10 06:27:10;;;;;;;10.68;3.40;;;19.40;99.90;;;;;;5090415;28;20024;-85
2023/07/10 06:29:37;;;;;;;9.88;3.25;;;19.60;99.90;;;;;;5028101;28;20017;-85
2023/07/10 06:32:04;;;;;;;11.10;3.60;;;19.80;99.90;;;;;;5037753;28;20315;-85
2023/07/10 06:34:29;;;;;;;9.77;3.30;;;19.90;99.90;;;;;;5023654;28;20285;-84
2023/07/10 06:36:56;;;;;;;9.05;3.58;;;19.90;99.90;;;;;;5024068;28;20029;-84
2023/07/10 06:39:22;;;;;;;8.98;3.13;;;20.00;99.90;;;;;;5036156;28;20162;-85
2023/07/10 06:41:48;;;;;;;10.45;3.05;;;20.00;99.90;;;;;;5007451;27;20156;-84
2023/07/10 06:44:15;;;;;;;11.25;3.13;;;20.00;99.90;;;;;;5020710;27;20059;-84
2023/07/10 06:46:41;;;;;;;11.77;2.90;;;20.00;99.90;;;;;;5021993;28;20275;-84
2023/07/10 06:49:06;;;;;;;11.85;3.10;;;20.10;99.90;;;;;;5025138;28;20033;-84
2023/07/10 06:51:35;;;;;;;10.20;3.05;;;20.10;99.90;;;;;;5011497;28;20072;-85
2023/07/10 06:54:02;;;;;;;9.60;3.08;;;20.10;99.90;;;;;;5029882;28;20016;-84
2023/07/10 06:56:32;;;;;;;11.27;3.47;;;20.30;99.90;;;;;;4998593;28;20018;-85
2023/07/10 06:58:57;;;;;;;12.30;3.33;;;20.30;99.90;;;;;;5007775;28;20222;-85
2023/07/10 07:01:23;;;;;;;9.15;2.80;;;20.40;99.90;;;;;;5018879;28;20119;-85
2023/07/10 07:03:49;;;;;;;11.50;3.53;;;20.50;99.90;;;;;;5012074;28;20017;-85
2023/07/10 07:06:15;;;;;;;10.10;2.70;;;20.60;99.90;;;;;;5023708;28;20227;-84
2023/07/10 07:08:48;;;;;;;9.55;2.50;;;20.70;99.90;;;;;;5021163;28;20093;-85
2023/07/10 07:11:15;;;;;;;9.05;2.55;;;20.70;99.90;;;;;;5016920;28;20049;-85
2023/07/10 07:13:41;;;;;;;11.48;2.80;;;20.80;99.90;;;;;;5032757;28;20030;-85
2023/07/10 07:16:06;;;;;;;10.73;2.88;;;20.80;99.90;;;;;;5036171;28;20044;-84
2023/07/10 07:18:32;;;;;;;12.30;3.35;;;20.90;99.90;;;;;;5012148;28;20013;-84
2023/07/10 07:20:58;;;;;;;9.93;3.00;;;21.00;99.90;;;;;;5020098;28;20023;-84
2023/07/10 07:23:26;;;;;;;8.68;2.90;;;21.10;99.90;;;;;;5035114;28;20033;-84
2023/07/10 07:25:54;;;;;;;10.63;3.00;;;21.10;99.90;;;;;;5025946;28;20019;-85
2023/07/10 07:28:20;;;;;;;10.05;3.50;;;21.20;99.90;;;;;;5006958;28;20029;-85
2023/07/10 07:30:49;;;;;;;12.35;3.35;;;21.30;99.90;;;;;;5016780;28;20062;-85
2023/07/10 07:33:20;;;;;;;11.43;3.10;;;21.40;99.90;;;;;;4989825;28;20045;-84
2023/07/10 07:35:47;;;;;;;9.07;2.63;;;21.50;99.90;;;;;;5033462;28;20100;-84
2023/07/10 07:38:13;;;;;;;9.93;2.83;;;21.60;99.90;;;;;;5015437;28;20132;-84
2023/07/10 07:40:39;;;;;;;9.55;2.88;;;21.60;99.90;;;;;;5035774;28;20167;-84
2023/07/10 07:43:05;;;;;;;10.32;2.75;;;21.70;99.90;;;;;;5007786;28;20056;-84
2023/07/10 07:45:31;;;;;;;10.38;2.70;;;21.80;99.90;;;;;;5022200;28;20065;-84
2023/07/10 07:47:56;;;;;;;8.50;2.55;;;21.10;99.90;;;;;;5026092;28;20255;-84
2023/07/10 07:50:22;;;;;;;9.82;2.92;;;21.90;99.90;;;;;;5030096;28;20126;-84
2023/07/10 07:52:48;;;;;;;12.80;2.90;;;22.00;99.90;;;;;;5015654;28;20267;-84
2023/07/10 07:55:14;;;;;;;10.57;3.08;;;22.10;99.90;;;;;;5002664;28;20029;-84
2023/07/10 07:57:40;;;;;;;11.32;3.28;;;22.10;99.90;;;;;;5017829;28;20286;-84
2023/07/10 08:00:08;;;;;;;10.13;3.20;;;22.10;99.90;;;;;;5008335;28;20018;-84
2023/07/10 08:02:34;;;;;;;10.80;2.70;;;22.20;99.90;;;;;;5020448;28;20029;-84
2023/07/10 08:05:01;;;;;;;11.50;3.22;;;;;;;;;;4998392;28;20018;-84
2023/07/10 08:07:27;;;;;;;10.98;3.08;;;22.30;99.90;;;;;;5013389;28;20033;-84
2023/07/10 08:09:53;;;;;;;11.13;2.75;;;22.30;99.90;;;;;;5046272;28;20092;-84
2023/07/10 08:12:18;;;;;;;11.18;2.95;;;22.40;99.90;;;;;;5018295;28;20365;-84
2023/07/10 08:14:44;;;;;;;11.70;3.00;;;22.60;99.90;;;;;;5019167;28;20022;-84
2023/07/10 08:17:11;;;;;;;9.20;2.70;;;22.70;99.90;;;;;;5035736;28;20077;-84
2023/07/10 08:19:36;;;;;;;12.52;3.13;;;22.80;99.90;;;;;;5004023;28;20064;-84
2023/07/10 08:22:02;;;;;;;10.43;2.78;;;22.60;99.90;;;;;;4997889;28;20026;-84
2023/07/10 08:24:28;;;;;;;11.65;2.58;;;22.60;99.90;;;;;;5014671;28;20067;-84
2023/07/10 08:26:55;;;;;;;9.27;2.40;;;22.40;99.90;;;;;;5027159;28;20514;-84
2023/07/10 08:29:24;;;;;;;10.23;2.53;;;22.30;99.90;;;;;;5014799;28;20217;-84
2023/07/10 08:31:53;;;;;;;8.57;2.50;;;22.20;99.90;;;;;;5031790;28;20219;-84
2023/07/10 08:34:18;;;;;;;12.80;2.67;;;22.20;99.90;;;;;;5016619;28;20049;-84
2023/07/10 08:36:45;;;;;;;10.68;2.80;;;22.30;99.90;;;;;;5032855;27;20093;-84
2023/07/10 08:39:11;;;;;;;11.13;2.50;;;22.50;99.90;;;;;;5016299;28;20057;-84
2023/07/10 08:41:36;;;;;;;9.77;2.50;;;22.50;99.90;;;;;;5047166;28;20070;-84
2023/07/10 08:44:02;;;;;;;9.48;2.70;;;22.60;99.90;;;;;;5004304;28;20189;-84
2023/07/10 08:46:29;;;;;;;11.82;2.65;;;22.60;99.90;;;;;;5018430;27;20077;-85
2023/07/10 08:49:17;;;;;;;9.38;2.67;;;22.80;99.90;;;;;;5008873;28;20017;-84
2023/07/10 08:51:54;;;;;;;8.50;2.50;;;22.90;99.90;;;;;;5033710;28;20013;-86
2023/07/10 08:54:20;;;;;;;9.43;2.72;;;23.00;99.90;;;;;;5025422;28;20294;-86
2023/07/10 08:56:53;;;;;;;12.07;2.72;;;22.90;99.90;;;;;;5016413;28;20029;-86
2023/07/10 08:59:36;;;;;;;8.55;2.00;;;23.00;99.90;;;;;;5042114;28;20029;-86
2023/07/10 09:02:02;;;;;;;12.23;2.75;;;23.00;99.90;;;;;;5019504;28;20051;-86
2023/07/10 09:04:30;;;;;;;11.25;2.55;;;22.90;99.90;;;;;;5008311;28;20010;-86
2023/07/10 09:07:01;;;;;;;9.80;2.40;;;22.90;99.90;;;;;;5022337;27;20028;-86
2023/07/10 09:09:44;;;;;;;12.57;3.28;;;22.90;99.90;;;;;;5052145;28;20313;-87
2023/07/10 09:12:12;;;;;;;11.55;2.80;;;22.90;99.90;;;;;;5031837;28;20029;-86
2023/07/10 09:14:58;;;;;;;9.13;2.33;;;23.00;99.90;;;;;;5041283;28;20025;-86
2023/07/10 09:17:39;;;;;;;10.27;2.40;;;23.00;99.90;;;;;;5040724;28;20013;-86
2023/07/10 09:20:09;;;;;;;8.63;2.47;;;23.00;99.90;;;;;;5039252;28;20029;-86
2023/07/10 09:22:38;;;;;;;9.68;2.30;;;23.20;99.90;;;;;;5034418;28;20072;-85
2023/07/10 09:25:14;;;;;;;7.28;2.20;;;23.40;99.90;;;;;;5039682;27;20111;-86
2023/07/10 09:27:47;;;;;;;11.57;2.85;;;23.50;99.90;;;;;;5020728;28;20318;-86
2023/07/10 09:30:50;;;;;;;11.18;2.75;;;23.00;99.90;;;;;;5037190;28;20159;-86
2023/07/10 09:33:15;;;;;;;10.32;2.55;;;23.10;99.90;;;;;;5015662;28;20052;-86
2023/07/10 09:35:43;;;;;;;10.80;2.45;;;23.50;99.90;;;;;;5017896;27;20016;-86
2023/07/10 09:38:11;;;;;;;8.38;2.25;;;23.40;99.90;;;;;;5038747;28;20025;-86
2023/07/10 09:40:45;;;;;;;10.50;2.40;;;23.40;99.90;;;;;;5035644;27;20037;-85
2023/07/10 09:43:30;;;;;;;9.60;2.40;;;23.60;99.90;;;;;;5038712;27;20025;-86
2023/07/10 09:45:59;;;;;;;10.90;2.53;;;23.70;99.90;;;;;;5003887;28;20072;-86
2023/07/10 09:48:36;;;;;;;13.13;2.78;;;23.70;99.90;;;;;;4986835;28;20029;-86
2023/07/10 09:51:08;;;;;;;8.77;2.72;;;23.80;99.90;;;;;;5019245;28;20027;-85
2023/07/10 09:53:41;;;;;;;9.65;2.47;;;23.90;99.90;;;;;;5003091;28;20036;-86
2023/07/10 09:56:07;;;;;;;10.20;2.45;;;24.30;99.90;;;;;;5005968;28;20026;-86
2023/07/10 09:58:44;;;;;;;10.40;2.63;;;24.20;99.90;;;;;;4996643;28;20032;-85
2023/07/10 10:01:11;;;;;;;10.32;2.63;;;24.30;99.90;;;;;;5016626;28;20033;-86
2023/07/10 10:03:41;;;;;;;9.40;2.63;;;24.40;99.90;;;;;;4987110;28;20021;-85
2023/07/10 10:06:19;;;;;;;9.40;2.65;;;24.60;99.90;;;;;;5004822;28;20274;-86
2023/07/10 10:08:47;;;;;;;9.98;2.65;;;24.70;99.90;;;;;;5018675;28;20029;-86
2023/07/10 10:11:13;;;;;;;10.68;2.08;;;24.70;99.90;;;;;;4986873;28;20041;-86
2023/07/10 10:13:47;;;;;;;8.77;2.33;;;24.50;99.90;;;;;;5015524;28;20028;-87
2023/07/10 10:16:23;;;;;;;9.55;2.38;;;24.10;99.90;;;;;;5052353;28;20271;-86
2023/07/10 10:19:03;;;;;;;10.95;2.75;;;24.10;99.90;;;;;;5026077;28;20013;-86
2023/07/10 10:21:33;;;;;;;12.32;3.03;;;24.30;99.90;;;;;;5026443;28;20255;-86
2023/07/10 10:24:04;;;;;;;10.20;2.55;;;24.40;99.90;;;;;;5004943;28;20213;-87
2023/07/10 10:26:54;;;;;;;10.90;2.85;;;24.60;99.90;;;;;;5086298;28;20295;-87
2023/07/10 10:29:44;;;;;;;10.80;2.67;;;24.90;99.90;;;;;;4996863;28;20033;-87
2023/07/10 10:32:27;;;;;;;11.85;3.08;;;24.60;99.90;;;;;;5084634;28;20092;-87
2023/07/10 10:35:03;;;;;;;12.40;2.83;;;24.60;99.90;;;;;;5096999;28;20042;-86
2023/07/10 10:37:52;;;;;;;12.65;3.00;;;24.80;99.90;;;;;;5086375;28;20018;-86
2023/07/10 10:40:30;;;;;;;9.77;2.40;;;24.80;99.90;;;;;;5085088;28;20084;-87
2023/07/10 10:43:04;;;;;;;11.30;2.80;;;25.00;99.90;;;;;;5087079;28;20033;-86
2023/07/10 10:45:43;;;;;;;10.65;2.60;;;25.10;99.90;;;;;;5050368;28;20045;-87
2023/07/10 10:48:24;;;;;;;11.45;2.63;;;25.00;99.90;;;;;;5014136;28;20037;-85
2023/07/10 10:51:10;;;;;;;11.23;2.72;;;24.90;99.90;;;;;;5014305;28;20105;-86
2023/07/10 10:53:36;;;;;;;15.13;3.45;;;25.00;99.90;;;;;;5080532;28;20021;-87
2023/07/10 10:56:22;;;;;;;12.98;2.88;;;25.00;99.90;;;;;;5021395;27;20273;-86
2023/07/10 10:59:05;;;;;;;9.80;2.53;;;25.00;99.90;;;;;;5004985;28;20018;-86
2023/07/10 11:02:17;;;;;;;13.10;2.65;;;25.10;99.90;;;;;;5011928;28;20025;-86
2023/07/10 11:04:47;;;;;;;15.40;3.03;;;25.10;99.90;;;;;;4999791;28;20032;-86
2023/07/10 11:07:19;;;;;;;8.52;2.58;;;25.00;99.90;;;;;;5016223;28;20179;-85
2023/07/10 11:09:59;;;;;;;10.23;2.40;;;25.10;99.90;;;;;;5017537;28;20100;-86
2023/07/10 11:12:29;;;;;;;11.73;2.50;;;23.80;99.90;;;;;;5017344;28;20259;-86
2023/07/10 11:15:10;;;;;;;12.00;2.80;;;25.30;99.90;;;;;;5033014;28;20047;-86
2023/07/10 11:17:36;;;;;;;11.88;2.40;;;25.30;99.90;;;;;;5025949;28;20021;-86
2023/07/10 11:20:04;;;;;;;9.60;2.25;;;25.50;99.90;;;;;;5001275;28;20135;-86
2023/07/10 11:22:31;;;;;;;11.80;2.42;;;25.50;99.90;;;;;;4974142;28;20326;-87
2023/07/10 11:25:04;;;;;;;9.98;2.67;;;25.50;99.90;;;;;;5016682;28;20025;-86
2023/07/10 11:27:36;;;;;;;12.20;2.83;;;25.50;99.90;;;;;;5004138;28;20537;-86
2023/07/10 11:30:15;;;;;;;9.95;2.30;;;25.50;99.90;;;;;;5008665;28;20071;-86
2023/07/10 11:33:02;;;;;;;10.40;2.70;;;25.50;99.90;;;;;;5005131;28;20209;-86
2023/07/10 11:35:29;;;;;;;9.95;2.70;;;25.50;99.90;;;;;;5029635;28;20270;-85
2023/07/10 11:38:03;;;;;;;11.00;2.70;;;25.70;99.90;;;;;;5007661;28;20021;-86
2023/07/10 11:40:29;;;;;;;9.27;2.28;;;25.80;99.90;;;;;;5020747;28;20045;-86
2023/07/10 11:42:55;;;;;;;11.50;2.35;;;25.90;99.90;;;;;;5004513;28;20049;-85
2023/07/10 11:45:34;;;;;;;8.88;2.60;;;25.80;99.90;;;;;;5008510;28;20045;-86
2023/07/10 11:47:59;;;;;;;10.40;2.45;;;25.80;99.90;;;;;;5021947;28;20163;-85
2023/07/10 11:50:29;;;;;;;9.98;2.38;;;25.20;99.90;;;;;;5021978;28;20093;-85
2023/07/10 11:53:22;;;;;;;9.20;2.30;;;25.30;99.90;;;;;;5021445;28;20037;-87
2023/07/10 11:55:57;;;;;;;9.10;2.38;;;25.30;99.90;;;;;;5019451;28;20074;-86
2023/07/10 11:58:28;;;;;;;10.40;2.63;;;25.30;99.90;;;;;;5023153;28;20070;-86
2023/07/10 12:01:19;;;;;;;11.05;2.25;;;25.20;99.90;;;;;;5022065;28;20032;-86
2023/07/10 12:03:46;;;;;;;10.85;2.03;;;25.20;99.90;;;;;;5006571;28;20034;-86
2023/07/10 12:06:23;;;;;;;7.95;2.13;;;25.10;99.90;;;;;;5004471;28;20026;-86
2023/07/10 12:08:51;;;;;;;7.22;1.95;;;25.20;99.90;;;;;;5033214;28;20361;-86
2023/07/10 12:11:33;;;;;;;8.55;2.15;;;25.40;99.90;;;;;;5020276;28;20021;-86
2023/07/10 12:14:12;;;;;;;10.55;2.42;;;25.60;99.90;;;;;;5018289;28;20050;-85
2023/07/10 12:16:48;;;;;;;9.75;2.72;;;25.60;99.90;;;;;;5021177;28;20018;-86
2023/07/10 12:19:17;;;;;;;10.77;2.20;;;25.40;99.90;;;;;;5019214;28;20029;-85
2023/07/10 12:21:44;;;;;;;8.45;2.35;;;25.20;99.90;;;;;;5021301;28;20029;-84
2023/07/10 12:24:16;;;;;;;7.50;2.00;;;25.10;99.90;;;;;;5023278;28;20036;-86
2023/07/10 12:26:42;;;;;;;8.57;2.20;;;24.70;99.90;;;;;;5023744;28;20198;-85
2023/07/10 12:29:13;;;;;;;8.98;2.00;;;24.80;99.90;;;;;;5021204;28;20162;-86
2023/07/10 12:31:40;;;;;;;6.93;1.98;;;24.60;99.90;;;;;;5017132;28;20211;-86
2023/07/10 12:34:23;;;;;;;7.88;2.10;;;24.70;99.90;;;;;;5020076;28;20091;-86
2023/07/10 12:36:51;;;;;;;8.18;1.95;;;24.70;99.90;;;;;;5061377;28;20056;-86
2023/07/10 12:39:17;;;;;;;9.10;2.15;;;24.70;99.90;;;;;;5020964;28;20345;-86
2023/07/10 12:41:47;;;;;;;10.80;2.13;;;24.90;99.90;;;;;;5096499;28;20045;-86
2023/07/10 12:44:19;;;;;;;8.85;1.98;;;25.30;99.90;;;;;;5021216;28;20074;-85
2023/07/10 12:46:45;;;;;;;8.07;1.90;;;25.30;99.90;;;;;;5020181;28;20195;-86
2023/07/10 12:49:13;;;;;;;11.07;2.50;;;25.50;99.90;;;;;;5009450;28;20073;-86